Time;durP1;ratioP1;P1;durP2;ratioP2;P2;SDS_P1;SDS_P2;PMS_P1;PMS_P2;Temp;Humidity;BMP_temperature;BMP_pressure;BME280_temperature;BME280_humidity;BME280_pressure;Samples;Min_cycle;Max_cycle;Signal;HPM_P1;HPM_P2
2024/03/27 00:01:29;;;;;;;3.38;2.70;;;;;;;12.51;48.97;94405.19;5027291;28;20112;-78
2024/03/27 00:03:54;;;;;;;4.05;2.78;;;;;;;12.64;48.75;94424.22;5028860;28;20152;-79
2024/03/27 00:06:21;;;;;;;4.22;2.78;;;;;;;12.50;49.20;94418.56;4992322;28;20032;-78
2024/03/27 00:08:46;;;;;;;3.83;2.45;;;;;;;12.42;49.00;94427.25;5023845;28;20040;-80
2024/03/27 00:11:12;;;;;;;3.67;2.58;;;;;;;12.22;50.33;94418.38;5036959;28;20045;-78
2024/03/27 00:13:37;;;;;;;3.60;2.78;;;;;;;12.13;50.27;94423.69;5041589;28;20041;-78
2024/03/27 00:16:03;;;;;;;4.60;3.47;;;;;;;12.08;50.73;94418.66;5050149;28;20040;-78
2024/03/27 00:18:29;;;;;;;3.80;2.95;;;;;;;12.01;51.06;94410.59;5030775;28;20432;-78
2024/03/27 00:20:54;;;;;;;4.00;3.22;;;;;;;11.96;51.23;94401.13;5047489;28;20108;-83
2024/03/27 00:23:19;;;;;;;4.03;2.70;;;;;;;11.90;50.67;94402.41;5013424;28;20040;-83
2024/03/27 00:25:45;;;;;;;3.13;2.50;;;;;;;11.85;51.29;94395.53;5011134;28;20481;-84
2024/03/27 00:28:10;;;;;;;3.80;2.47;;;;;;;11.74;50.95;94394.41;4997784;28;20481;-84
2024/03/27 00:30:35;;;;;;;4.63;2.90;;;;;;;11.73;51.14;94387.66;5053015;28;20030;-78
2024/03/27 00:33:02;;;;;;;4.90;2.80;;;;;;;11.78;50.92;94396.03;5051618;28;20040;-78
2024/03/27 00:35:27;;;;;;;4.30;2.35;;;;;;;11.73;51.20;94385.06;5027078;28;20036;-82
2024/03/27 00:37:52;;;;;;;5.22;2.72;;;;;;;11.72;51.80;94384.31;5058226;28;20405;-83
2024/03/27 00:40:21;;;;;;;4.20;2.78;;;;;;;11.77;51.28;94383.31;5042411;28;20041;-84
2024/03/27 00:42:46;;;;;;;6.18;3.53;;;;;;;11.75;50.98;94375.06;4993198;28;20028;-84
2024/03/27 00:45:15;;;;;;;3.75;3.00;;;;;;;11.81;50.66;94390.19;5012877;28;20404;-83
2024/03/27 00:47:40;;;;;;;3.72;3.03;;;;;;;11.78;50.92;94390.06;4992624;28;20037;-85
2024/03/27 00:50:06;;;;;;;3.92;2.83;;;;;;;11.74;51.37;94379.53;4993974;28;20030;-79
2024/03/27 00:52:32;;;;;;;5.45;3.75;;;;;;;11.79;51.65;94374.13;5044183;28;20098;-78
2024/03/27 00:54:57;;;;;;;6.05;2.72;;;;;;;11.77;51.18;94362.47;5027271;28;20029;-78
2024/03/27 00:57:23;;;;;;;4.78;2.88;;;;;;;11.68;51.89;94359.94;5022646;28;20075;-79
2024/03/27 00:59:48;;;;;;;3.58;2.47;;;;;;;11.60;51.88;94364.16;5042470;28;20104;-78
2024/03/27 01:02:14;;;;;;;3.72;2.80;;;;;;;11.50;52.22;94355.97;5044541;28;20533;-78
2024/03/27 01:04:39;;;;;;;5.30;3.08;;;;;;;11.44;52.22;94345.72;5028427;28;20037;-83
2024/03/27 01:07:04;;;;;;;3.88;2.47;;;;;;;11.38;52.35;94352.22;5038759;28;20024;-83
2024/03/27 01:09:30;;;;;;;4.10;2.95;;;;;;;11.37;52.85;94358.50;5046957;28;20047;-83
2024/03/27 01:14:30;;;;;;;;;;;;;;;11.44;52.98;94326.75;5698279;22;20101;-83
2024/03/27 01:16:57;;;;;;;4.63;2.83;;;;;;;11.33;53.06;94310.75;5048267;28;19919;-82
2024/03/27 01:19:22;;;;;;;5.78;2.95;;;;;;;11.33;53.37;94312.59;5068543;28;20029;-82
2024/03/27 01:21:48;;;;;;;3.85;2.90;;;;;;;11.33;53.51;94313.34;5070545;28;20054;-82
2024/03/27 01:24:13;;;;;;;5.07;3.00;;;;;;;11.33;52.94;94313.34;5059503;28;20037;-83
2024/03/27 01:26:38;;;;;;;4.07;2.78;;;;;;;11.36;52.76;94312.72;5067139;28;20047;-83
2024/03/27 01:29:04;;;;;;;4.97;2.85;;;;;;;11.38;52.61;94307.94;5059759;28;20043;-82
2024/03/27 01:31:29;;;;;;;3.97;3.08;;;;;;;11.31;53.03;94299.88;5052510;28;20031;-82
2024/03/27 01:33:54;;;;;;;5.05;3.22;;;;;;;11.34;53.13;94298.47;5031122;28;20028;-82
2024/03/27 01:36:20;;;;;;;3.50;2.45;;;;;;;11.33;53.28;94300.31;5052930;28;20491;-82
2024/03/27 01:38:45;;;;;;;3.70;2.67;;;;;;;11.36;53.12;94307.50;5048205;28;20491;-83
2024/03/27 01:41:11;;;;;;;3.28;2.97;;;;;;;11.39;52.91;94306.84;5034929;28;20447;-82
2024/03/27 01:43:37;;;;;;;4.47;2.63;;;;;;;11.39;52.79;94306.84;5038787;28;20038;-83
2024/03/27 01:46:06;;;;;;;3.95;2.55;;;;;;;11.41;52.98;94294.28;5062328;28;20032;-83
2024/03/27 01:48:31;;;;;;;4.95;2.97;;;;;;;11.35;52.84;94292.94;5029808;28;20123;-83
2024/03/27 01:50:56;;;;;;;3.55;2.85;;;;;;;11.39;53.03;94288.59;5061407;28;20134;-83
2024/03/27 01:53:22;;;;;;;4.60;3.10;;;;;;;11.47;52.94;94291.47;5079780;28;20028;-81
2024/03/27 01:55:47;;;;;;;3.10;2.35;;;;;;;11.37;52.28;94284.81;5026511;28;20032;-82
2024/03/27 01:58:13;;;;;;;4.15;2.70;;;;;;;11.43;52.49;94296.56;5037630;28;20031;-82
2024/03/27 02:00:42;;;;;;;3.92;2.60;;;;;;;11.43;52.96;94297.31;5067589;28;20060;-83
2024/03/27 02:03:08;;;;;;;4.38;3.13;;;;;;;11.22;53.19;94286.94;5052221;28;20119;-83
2024/03/27 02:05:34;;;;;;;4.30;2.80;;;;;;;11.11;53.16;94279.81;5023576;28;20032;-83
2024/03/27 02:08:00;;;;;;;5.20;2.50;;;;;;;11.13;53.79;94291.44;5058483;28;20035;-83
2024/03/27 02:10:25;;;;;;;4.20;2.60;;;;;;;11.08;53.68;94286.41;5047552;28;20547;-82
2024/03/27 02:12:50;;;;;;;3.90;2.85;;;;;;;11.14;54.14;94290.38;5074393;28;20040;-83
2024/03/27 02:15:17;;;;;;;4.65;3.13;;;;;;;11.10;54.88;94286.09;5044350;28;20479;-82
2024/03/27 02:17:43;;;;;;;3.70;2.63;;;;;;;11.11;53.49;94285.78;5031297;28;20171;-83
2024/03/27 02:20:09;;;;;;;7.30;3.42;;;;;;;11.00;53.92;94289.84;5060863;28;20111;-84
2024/03/27 02:22:34;;;;;;;4.78;2.85;;;;;;;11.01;54.12;94301.78;5025017;28;20372;-83
2024/03/27 02:25:22;;;;;;;4.70;2.70;;;;;;;11.08;54.50;94296.84;5072025;28;20031;-82
2024/03/27 02:27:48;;;;;;;2.88;2.30;;;;;;;10.96;55.02;94279.31;5064292;28;20097;-83
2024/03/27 02:30:13;;;;;;;4.93;2.85;;;;;;;10.95;54.48;94277.81;5071396;28;20515;-83
2024/03/27 02:32:39;;;;;;;6.07;3.00;;;;;;;11.00;54.46;94279.44;5017973;28;20519;-83
2024/03/27 02:35:04;;;;;;;3.15;2.42;;;;;;;11.01;54.77;94281.72;5039699;28;20094;-83
2024/03/27 02:37:30;;;;;;;3.47;2.45;;;;;;;10.99;55.74;94275.31;5069910;28;20263;-84
2024/03/27 02:39:55;;;;;;;7.10;3.65;;;;;;;10.98;55.45;94261.53;5031287;28;20502;-82
2024/03/27 02:42:21;;;;;;;6.10;3.30;;;;;;;11.06;56.45;94273.72;5030636;28;20035;-83
2024/03/27 02:44:46;;;;;;;4.80;3.05;;;;;;;11.05;56.10;94261.00;5045346;28;20183;-83
2024/03/27 02:47:12;;;;;;;4.45;3.30;;;;;;;11.05;55.99;94266.22;5037315;28;20033;-83
2024/03/27 02:49:37;;;;;;;5.00;3.00;;;;;;;11.05;56.31;94268.81;5030130;28;20207;-83
2024/03/27 02:52:03;;;;;;;5.70;3.00;;;;;;;10.99;56.67;94276.06;5044664;28;20020;-83
2024/03/27 02:54:28;;;;;;;4.45;2.53;;;;;;;10.95;56.55;94262.19;5032035;28;20100;-82
2024/03/27 02:56:54;;;;;;;6.28;2.78;;;;;;;10.84;56.15;94240.22;5050818;28;20521;-83
2024/03/27 02:59:19;;;;;;;3.63;2.80;;;;;;;10.88;56.10;94233.28;5032121;28;20029;-82
2024/03/27 03:01:44;;;;;;;4.35;2.90;;;;;;;10.92;56.38;94231.56;5068339;28;20036;-83
2024/03/27 03:04:10;;;;;;;5.22;3.33;;;;;;;10.87;55.34;94229.16;5035459;28;20396;-83
2024/03/27 03:06:36;;;;;;;4.90;3.20;;;;;;;10.84;56.01;94227.19;5025845;28;20032;-83
2024/03/27 03:09:02;;;;;;;4.88;2.95;;;;;;;10.78;55.78;94215.44;5063225;28;20487;-83
2024/03/27 03:11:27;;;;;;;3.80;2.95;;;;;;;10.72;56.08;94207.06;5071796;28;20031;-82
2024/03/27 03:13:53;;;;;;;6.13;3.42;;;;;;;10.66;56.57;94185.69;5039545;28;20033;-83
2024/03/27 03:16:19;;;;;;;6.50;3.15;;;;;;;10.63;56.66;94181.13;5033046;28;21716;-82
2024/03/27 03:18:47;;;;;;;4.43;2.90;;;;;;;10.71;56.87;94179.53;5034424;28;20078;-82
2024/03/27 03:21:12;;;;;;;5.28;2.53;;;;;;;10.62;56.51;94168.41;5055092;28;20039;-83
2024/03/27 03:23:38;;;;;;;4.07;2.88;;;;;;;10.57;56.72;94174.56;5040061;28;20479;-83
2024/03/27 03:26:03;;;;;;;4.32;2.45;;;;;;;10.60;56.45;94181.00;5035201;28;20044;-83
2024/03/27 03:28:29;;;;;;;4.93;2.88;;;;;;;10.53;57.56;94167.75;5071104;28;20037;-82
2024/03/27 03:31:01;;;;;;;4.18;2.78;;;;;;;10.55;57.06;94136.97;5065347;28;20071;-82
2024/03/27 03:33:27;;;;;;;4.30;2.30;;;;;;;10.51;56.96;94143.88;5066284;28;20036;-82
2024/03/27 03:35:57;;;;;;;3.85;3.10;;;;;;;10.53;56.92;94150.28;5026359;28;20028;-78
2024/03/27 03:38:22;;;;;;;4.25;2.60;;;;;;;10.46;56.95;94158.59;5042283;28;20388;-78
2024/03/27 03:40:56;;;;;;;5.30;2.75;;;;;;;10.47;57.22;94162.72;5070186;28;20372;-78
2024/03/27 03:43:21;;;;;;;4.68;2.70;;;;;;;10.26;57.74;94148.91;5048854;28;20111;-78
2024/03/27 03:45:47;;;;;;;3.10;2.38;;;;;;;10.27;58.25;94148.59;5046591;28;20468;-78
2024/03/27 03:48:12;;;;;;;4.75;2.53;;;;;;;10.28;57.66;94163.13;5020316;28;20036;-77
2024/03/27 03:50:37;;;;;;;4.03;2.13;;;;;;;10.28;57.15;94163.13;5056926;28;20052;-80
2024/03/27 03:53:03;;;;;;;5.18;2.90;;;;;;;10.51;56.71;94183.66;5036416;28;20032;-78
2024/03/27 03:55:28;;;;;;;5.13;2.58;;;;;;;10.54;57.04;94188.25;5042916;28;20542;-78
2024/03/27 03:57:54;;;;;;;4.13;2.40;;;;;;;10.63;56.85;94208.97;5034878;28;20044;-78
2024/03/27 04:00:21;;;;;;;4.63;2.42;;;;;;;10.73;56.35;94215.63;5023113;28;20299;-77
2024/03/27 04:02:47;;;;;;;3.70;2.53;;;;;;;10.74;56.67;94225.72;5048776;28;20118;-78
2024/03/27 04:05:12;;;;;;;3.53;2.40;;;;;;;10.68;56.70;94227.00;5022483;28;20164;-78
2024/03/27 04:07:38;;;;;;;4.13;2.78;;;;;;;10.61;56.73;94217.09;5069721;28;20032;-79
2024/03/27 04:10:03;;;;;;;5.13;2.88;;;;;;;10.52;57.23;94213.81;5040872;28;20024;-78
2024/03/27 04:12:29;;;;;;;3.05;2.25;;;;;;;10.49;58.54;94215.19;5032388;28;20033;-78
2024/03/27 04:14:55;;;;;;;2.60;1.92;;;;;;;10.49;58.62;94217.03;5056079;28;20505;-78
2024/03/27 04:17:20;;;;;;;2.60;1.58;;;;;;;10.59;58.90;94221.09;5054783;28;20036;-78
2024/03/27 04:19:45;;;;;;;5.80;2.42;;;;;;;10.65;58.50;94223.19;5057279;28;20028;-78
2024/03/27 04:22:11;;;;;;;4.70;2.30;;;;;;;10.77;58.32;94234.75;5034502;28;20039;-82
2024/03/27 04:24:37;;;;;;;3.95;2.70;;;;;;;10.74;58.01;94225.72;5060973;28;20051;-83
2024/03/27 04:27:03;;;;;;;5.30;2.53;;;;;;;10.87;56.85;94234.38;5036962;28;20031;-83
2024/03/27 04:29:30;;;;;;;5.05;2.50;;;;;;;10.86;57.63;94235.44;5034225;28;20078;-83
2024/03/27 04:31:55;;;;;;;3.35;2.25;;;;;;;10.82;57.30;94230.09;5041857;28;20210;-82
2024/03/27 04:34:20;;;;;;;3.15;2.47;;;;;;;10.83;57.01;94233.47;5045014;28;20138;-83
2024/03/27 04:36:46;;;;;;;4.15;2.53;;;;;;;10.82;57.32;94224.91;5053485;28;20035;-83
2024/03/27 04:39:11;;;;;;;3.47;2.38;;;;;;;10.93;57.64;94227.13;5043386;28;20031;-83
2024/03/27 04:41:37;;;;;;;3.78;2.38;;;;;;;10.86;57.38;94228.41;5017835;28;20028;-82
2024/03/27 04:44:02;;;;;;;4.25;2.30;;;;;;;10.90;57.13;94223.31;5048665;28;20059;-82
2024/03/27 04:46:27;;;;;;;4.03;2.35;;;;;;;11.01;57.69;94223.69;5034356;28;20044;-82
2024/03/27 04:48:53;;;;;;;3.70;2.20;;;;;;;10.97;58.69;94228.78;5056394;28;20063;-83
2024/03/27 04:51:18;;;;;;;5.15;2.70;;;;;;;11.07;59.33;94230.22;5020346;28;20075;-83
2024/03/27 04:53:43;;;;;;;4.40;2.20;;;;;;;11.13;59.38;94225.59;5035597;28;20037;-82
2024/03/27 04:56:09;;;;;;;4.00;2.60;;;;;;;11.18;59.35;94214.97;5016186;28;20025;-83
2024/03/27 04:58:34;;;;;;;5.10;2.92;;;;;;;11.36;58.59;94225.97;5033433;28;20060;-83
2024/03/27 05:00:59;;;;;;;3.95;2.80;;;;;;;11.42;59.54;94222.84;5031104;28;20476;-81
2024/03/27 05:03:25;;;;;;;4.38;2.33;;;;;;;11.44;59.56;94225.13;5048797;28;20399;-82
2024/03/27 05:05:50;;;;;;;4.53;2.58;;;;;;;11.44;59.72;94217.31;5027118;28;20082;-83
2024/03/27 05:08:16;;;;;;;3.80;2.70;;;;;;;11.49;59.65;94217.13;5028559;28;20024;-83
2024/03/27 05:10:41;;;;;;;3.80;2.70;;;;;;;11.52;59.67;94218.31;5029998;28;20500;-83
2024/03/27 05:13:06;;;;;;;3.65;3.03;;;;;;;11.58;58.36;94217.81;5020134;28;20403;-82
2024/03/27 05:15:32;;;;;;;3.60;2.78;;;;;;;11.62;58.87;94226.47;5038084;28;20036;-82
2024/03/27 05:17:58;;;;;;;3.28;2.63;;;;;;;11.60;59.05;94223.44;5011196;28;20124;-82
2024/03/27 05:20:23;;;;;;;4.15;2.60;;;;;;;11.62;58.84;94223.13;5067968;28;20032;-83
2024/03/27 05:22:49;;;;;;;2.83;2.30;;;;;;;11.57;59.45;94218.88;5036413;28;20043;-83
2024/03/27 05:25:14;;;;;;;7.05;3.22;;;;;;;11.52;59.29;94220.94;5025448;28;20063;-83
2024/03/27 05:27:40;;;;;;;3.38;2.60;;;;;;;11.51;58.74;94219.41;5026532;28;20539;-83
2024/03/27 05:30:07;;;;;;;4.25;2.78;;;;;;;11.51;58.73;94227.97;5045371;28;20399;-83
2024/03/27 05:32:32;;;;;;;4.50;3.05;;;;;;;11.46;59.39;94215.16;5042256;28;20020;-82
2024/03/27 05:34:57;;;;;;;3.22;2.80;;;;;;;11.46;58.83;94209.19;5028040;28;20038;-82
2024/03/27 05:37:23;;;;;;;4.82;3.55;;;;;;;11.42;58.72;94215.03;5028825;28;20162;-83
2024/03/27 05:39:48;;;;;;;4.00;2.80;;;;;;;11.36;58.98;94208.53;5044248;28;20476;-83
2024/03/27 05:42:13;;;;;;;4.43;3.00;;;;;;;11.33;58.39;94209.16;5014413;28;20549;-83
2024/03/27 05:44:39;;;;;;;3.20;2.78;;;;;;;11.44;58.13;94219.91;5064482;28;20059;-82
2024/03/27 05:47:05;;;;;;;3.63;3.20;;;;;;;11.46;58.16;94217.00;5047497;28;20124;-83
2024/03/27 05:49:30;;;;;;;5.07;3.40;;;;;;;11.43;58.15;94200.94;5037679;28;20416;-82
2024/03/27 05:51:56;;;;;;;5.80;3.25;;;;;;;11.36;59.01;94197.31;5050023;28;20016;-82
2024/03/27 05:54:21;;;;;;;4.70;3.28;;;;;;;11.46;59.42;94203.97;5033613;28;20032;-83
2024/03/27 05:56:47;;;;;;;5.22;3.42;;;;;;;11.44;59.21;94179.00;5021795;28;20503;-77
2024/03/27 05:59:13;;;;;;;4.28;3.30;;;;;;;11.47;59.00;94188.03;5030159;28;20439;-78
2024/03/27 06:01:38;;;;;;;3.95;2.95;;;;;;;11.41;59.12;94184.88;5027691;28;20045;-78
2024/03/27 06:04:04;;;;;;;5.75;3.60;;;;;;;11.42;59.26;94185.63;5062731;28;20483;-78
2024/03/27 06:06:30;;;;;;;4.22;3.55;;;;;;;11.43;58.77;94190.50;5036059;28;20040;-79
2024/03/27 06:08:55;;;;;;;3.95;3.20;;;;;;;11.49;58.76;94198.13;5056351;28;20518;-78
2024/03/27 06:11:20;;;;;;;4.35;3.22;;;;;;;11.52;58.20;94197.47;5035784;28;20040;-78
2024/03/27 06:13:46;;;;;;;3.65;2.90;;;;;;;11.59;58.75;94208.13;5063320;28;20064;-78
2024/03/27 06:16:11;;;;;;;4.72;2.78;;;;;;;11.62;58.72;94216.06;5016344;28;20477;-77
2024/03/27 06:18:36;;;;;;;4.82;3.28;;;;;;;11.66;58.21;94221.38;5027557;28;20040;-78
2024/03/27 06:21:03;;;;;;;5.72;3.63;;;;;;;11.66;58.94;94210.97;5041716;28;20122;-80
2024/03/27 06:23:28;;;;;;;4.97;3.47;;;;;;;11.68;58.82;94208.78;5036490;28;20036;-78
2024/03/27 06:25:54;;;;;;;4.45;3.80;;;;;;;11.73;58.96;94208.56;5048159;28;20139;-77
2024/03/27 06:28:19;;;;;;;6.32;4.10;;;;;;;11.75;59.17;94203.78;5063012;28;20086;-77
2024/03/27 06:30:45;;;;;;;6.68;4.72;;;;;;;11.77;59.49;94214.69;5067981;28;20177;-77
2024/03/27 06:33:10;;;;;;;5.78;3.85;;;;;;;11.84;59.03;94214.13;5033082;28;20116;-78
2024/03/27 06:35:35;;;;;;;6.15;3.85;;;;;;;11.89;58.90;94213.94;5057060;28;20043;-78
2024/03/27 06:38:01;;;;;;;5.63;4.00;;;;;;;12.02;59.22;94222.53;5065657;28;20036;-78
2024/03/27 06:40:26;;;;;;;6.25;4.03;;;;;;;12.01;58.87;94220.25;5079535;28;20041;-78
2024/03/27 06:42:52;;;;;;;5.50;3.60;;;;;;;12.08;58.82;94221.25;5054503;28;21647;-78
2024/03/27 06:45:17;;;;;;;6.32;3.65;;;;;;;12.11;59.66;94223.19;5067572;28;20484;-78
2024/03/27 06:47:43;;;;;;;4.10;3.30;;;;;;;12.10;58.89;94213.84;5041781;28;20033;-77
2024/03/27 06:50:10;;;;;;;4.15;3.70;;;;;;;12.20;58.32;94217.09;5029976;28;20036;-78
2024/03/27 06:52:35;;;;;;;4.07;2.90;;;;;;;12.32;57.96;94215.25;5043360;28;20032;-79
2024/03/27 06:55:01;;;;;;;7.40;3.13;;;;;;;12.37;57.92;94219.47;5053143;28;20035;-79
2024/03/27 06:57:26;;;;;;;5.10;3.50;;;;;;;12.40;58.43;94210.22;5022044;28;20028;-79
2024/03/27 06:59:51;;;;;;;6.93;4.18;;;;;;;12.38;57.95;94202.72;5074030;28;20579;-78
2024/03/27 07:02:17;;;;;;;5.25;3.70;;;;;;;12.46;58.17;94204.47;5038701;28;20444;-78
2024/03/27 07:04:43;;;;;;;4.82;4.07;;;;;;;12.53;57.33;94225.53;5042895;28;20387;-79
2024/03/27 07:07:08;;;;;;;6.13;3.55;;;;;;;12.62;57.58;94224.66;5040794;28;20495;-84
2024/03/27 07:09:34;;;;;;;5.35;4.00;;;;;;;12.50;57.85;94220.22;5072575;28;20096;-83
2024/03/27 07:11:59;;;;;;;4.75;3.63;;;;;;;12.55;57.42;94227.81;5056707;28;20021;-83
2024/03/27 07:14:24;;;;;;;5.55;3.92;;;;;;;12.51;57.36;94219.91;5024078;28;20033;-85
2024/03/27 07:16:50;;;;;;;5.47;3.80;;;;;;;12.60;58.07;94232.06;5016673;28;20029;-78
2024/03/27 07:19:15;;;;;;;5.45;3.72;;;;;;;12.61;57.59;94228.34;5026083;28;20089;-79
2024/03/27 07:21:43;;;;;;;4.35;3.55;;;;;;;12.64;57.64;94240.75;5043543;28;20044;-84
2024/03/27 07:24:09;;;;;;;5.38;3.78;;;;;;;12.68;57.66;94237.16;5047038;28;20028;-84
2024/03/27 07:26:37;;;;;;;6.65;3.92;;;;;;;12.60;57.55;94229.47;5052758;28;20043;-83
2024/03/27 07:29:02;;;;;;;4.68;3.75;;;;;;;12.64;57.74;94238.88;5056946;28;20031;-83
2024/03/27 07:31:28;;;;;;;4.82;3.72;;;;;;;12.75;57.97;94236.59;5044165;28;20472;-84
2024/03/27 07:33:53;;;;;;;5.38;4.20;;;;;;;12.70;58.59;94229.75;5053028;28;20559;-83
2024/03/27 07:36:18;;;;;;;5.68;3.70;;;;;;;12.73;58.10;94233.53;5061446;28;20449;-83
2024/03/27 07:38:44;;;;;;;5.10;3.67;;;;;;;12.76;57.91;94226.91;5047737;28;20024;-84
2024/03/27 07:41:09;;;;;;;5.75;3.65;;;;;;;12.69;57.97;94227.47;5045504;28;20028;-83
2024/03/27 07:43:35;;;;;;;6.68;3.67;;;;;;;12.74;58.36;94225.38;5036486;28;20094;-84
2024/03/27 07:46:04;;;;;;;5.90;3.60;;;;;;;12.78;58.02;94224.72;5027403;28;20029;-84
2024/03/27 07:48:30;;;;;;;6.60;4.25;;;;;;;12.74;58.52;94224.63;5062121;28;20544;-83
2024/03/27 07:50:55;;;;;;;5.13;3.80;;;;;;;12.68;57.37;94223.31;5035966;28;20039;-83
2024/03/27 07:53:21;;;;;;;4.00;3.40;;;;;;;12.70;57.69;94231.63;5042652;28;20035;-84
2024/03/27 07:55:56;;;;;;;5.40;3.50;;;;;;;12.78;57.77;94225.47;5031871;28;20036;-83
2024/03/27 07:58:22;;;;;;;5.82;3.80;;;;;;;12.79;58.31;94229.63;5035494;28;20488;-84
2024/03/27 08:00:47;;;;;;;7.57;4.40;;;;;;;12.86;58.28;94235.03;5072923;28;20031;-83
2024/03/27 08:03:13;;;;;;;6.00;4.40;;;;;;;12.91;58.49;94249.72;5021800;28;20123;-83
2024/03/27 08:05:39;;;;;;;5.13;4.35;;;;;;;12.97;57.90;94252.84;5045931;28;20033;-83
2024/03/27 08:08:04;;;;;;;5.68;3.95;;;;;;;12.92;57.65;94252.00;5035964;28;20038;-83
2024/03/27 08:10:35;;;;;;;5.72;3.78;;;;;;;13.03;57.40;94256.75;5032049;28;20405;-87
2024/03/27 08:13:00;;;;;;;7.20;4.43;;;;;;;13.03;57.49;94267.22;5034315;28;20033;-85
2024/03/27 08:15:26;;;;;;;7.15;4.55;;;;;;;13.13;57.53;94271.97;5051790;28;20046;-88
2024/03/27 08:17:51;;;;;;;4.50;3.97;;;;;;;13.15;57.61;94269.03;5035857;28;20040;-80
2024/03/27 08:20:17;;;;;;;4.93;3.90;;;;;;;13.11;57.07;94267.06;5035064;28;20028;-80
2024/03/27 08:22:46;;;;;;;6.45;4.50;;;;;;;13.07;57.83;94260.22;5039326;28;20599;-82
2024/03/27 08:25:12;;;;;;;6.72;4.00;;;;;;;13.15;57.57;94285.44;5050852;28;20048;-86
2024/03/27 08:27:38;;;;;;;3.88;3.40;;;;;;;13.05;57.39;94265.03;5042412;28;20028;-85
2024/03/27 08:30:04;;;;;;;6.00;3.75;;;;;;;13.14;57.52;94281.31;5040798;28;20029;-83
2024/03/27 08:32:30;;;;;;;4.32;3.00;;;;;;;13.14;57.70;94289.16;5042216;28;20400;-86
2024/03/27 08:34:56;;;;;;;4.47;2.53;;;;;;;13.11;57.64;94282.00;5016547;28;20035;-87
2024/03/27 08:37:21;;;;;;;3.83;1.92;;;;;;;13.11;56.94;94284.59;5019559;28;20115;-85
2024/03/27 08:39:46;;;;;;;2.97;1.90;;;;;;;13.21;56.79;94296.44;5019594;28;20029;-87
2024/03/27 08:42:12;;;;;;;2.45;1.48;;;;;;;13.13;56.91;94303.31;5007817;28;20064;-85
2024/03/27 08:44:37;;;;;;;2.97;1.42;;;;;;;13.01;55.94;94298.13;5041817;28;20032;-87
2024/03/27 08:47:04;;;;;;;2.63;1.60;;;;;;;13.09;56.25;94302.44;5048683;28;20028;-85
2024/03/27 08:49:29;;;;;;;2.25;1.73;;;;;;;13.17;55.41;94303.41;5032708;28;20029;-86
2024/03/27 08:51:55;;;;;;;2.55;2.00;;;;;;;13.14;55.48;94302.22;5038753;28;20035;-86
2024/03/27 08:54:20;;;;;;;2.58;2.38;;;;;;;13.11;55.22;94305.50;5043863;28;20008;-86
2024/03/27 08:56:45;;;;;;;2.25;1.85;;;;;;;13.00;55.57;94302.56;5043609;28;20044;-86
2024/03/27 08:59:11;;;;;;;4.20;2.60;;;;;;;13.00;55.80;94294.75;5027370;28;20503;-87
2024/03/27 09:01:36;;;;;;;4.47;2.88;;;;;;;13.09;55.67;94305.84;5021430;28;20025;-85
2024/03/27 09:04:02;;;;;;;3.30;2.83;;;;;;;13.05;55.85;94304.19;5023034;28;20027;-86
2024/03/27 09:06:27;;;;;;;3.63;3.08;;;;;;;13.13;55.89;94313.00;5038639;28;20082;-85
2024/03/27 09:08:52;;;;;;;3.28;2.40;;;;;;;13.04;55.83;94300.06;5043810;28;20068;-86
2024/03/27 09:11:21;;;;;;;2.92;2.25;;;;;;;13.05;55.98;94301.59;5038774;28;20108;-86
2024/03/27 09:13:46;;;;;;;2.78;2.40;;;;;;;12.97;55.90;94294.63;5033031;28;20175;-85
2024/03/27 09:16:11;;;;;;;2.42;2.22;;;;;;;13.10;55.53;94299.50;5026036;28;20071;-83
2024/03/27 09:18:37;;;;;;;2.80;1.95;;;;;;;13.16;55.09;94307.88;5053303;28;20497;-85
2024/03/27 09:21:02;;;;;;;2.20;2.00;;;;;;;13.06;55.89;94303.88;5030894;28;20033;-85
2024/03/27 09:23:28;;;;;;;3.28;1.80;;;;;;;13.06;56.45;94309.09;5049782;28;20175;-85
2024/03/27 09:25:54;;;;;;;2.50;1.92;;;;;;;12.98;55.90;94317.06;5030838;28;20028;-85
2024/03/27 09:28:21;;;;;;;1.70;1.60;;;;;;;13.06;55.79;94310.97;5031627;28;20496;-77
2024/03/27 09:30:46;;;;;;;2.75;2.30;;;;;;;13.00;55.68;94314.88;5063811;28;20036;-78
2024/03/27 09:33:12;;;;;;;2.90;2.65;;;;;;;12.98;55.31;94311.84;5049971;28;20499;-79
2024/03/27 09:35:38;;;;;;;3.03;2.38;;;;;;;12.95;56.05;94312.50;5020011;28;20040;-78
2024/03/27 09:38:03;;;;;;;2.97;2.63;;;;;;;12.95;56.40;94317.72;5033920;28;20036;-77
2024/03/27 09:40:28;;;;;;;3.08;2.40;;;;;;;12.99;55.83;94329.00;5065798;28;20040;-77
2024/03/27 09:42:55;;;;;;;2.65;2.20;;;;;;;13.06;55.92;94343.06;5030521;28;20484;-77
2024/03/27 09:45:21;;;;;;;2.45;2.20;;;;;;;13.00;55.57;94341.75;5030843;28;20429;-78
2024/03/27 09:47:46;;;;;;;2.65;2.40;;;;;;;12.96;55.32;94340.16;5031737;28;20037;-78
2024/03/27 09:50:13;;;;;;;2.40;2.03;;;;;;;12.88;55.96;94350.34;5043535;28;20036;-78
2024/03/27 09:52:39;;;;;;;2.83;2.33;;;;;;;12.82;55.74;94375.19;5030090;28;20053;-78
2024/03/27 09:55:05;;;;;;;2.65;1.58;;;;;;;12.81;54.96;94365.81;5053179;28;20032;-77
2024/03/27 09:57:30;;;;;;;1.95;1.50;;;;;;;12.87;55.21;94367.13;5018341;28;20028;-78
2024/03/27 09:59:58;;;;;;;2.33;1.95;;;;;;;12.80;54.55;94373.97;5033580;28;20101;-78
2024/03/27 10:02:26;;;;;;;3.05;2.13;;;;;;;12.72;54.65;94373.00;5031270;28;20048;-78
2024/03/27 10:04:52;;;;;;;3.00;2.08;;;;;;;12.76;55.09;94370.50;5018979;28;20047;-79
2024/03/27 10:07:20;;;;;;;3.53;2.67;;;;;;;12.66;54.49;94376.91;5034439;28;20172;-78
2024/03/27 10:09:46;;;;;;;4.30;2.97;;;;;;;12.80;54.22;94384.41;5055618;28;20025;-77
2024/03/27 10:12:12;;;;;;;4.13;3.13;;;;;;;12.81;54.41;94386.72;5019180;28;20035;-78
2024/03/27 10:14:37;;;;;;;4.28;3.30;;;;;;;12.80;54.24;94385.19;5033884;28;20029;-77
2024/03/27 10:17:02;;;;;;;5.05;3.92;;;;;;;12.77;53.85;94391.06;5047250;28;20028;-77
2024/03/27 10:19:28;;;;;;;3.58;3.00;;;;;;;12.76;53.99;94394.00;5053038;28;20028;-77
2024/03/27 10:21:54;;;;;;;4.50;3.45;;;;;;;12.81;53.78;94399.75;5037458;28;20039;-78
2024/03/27 10:24:19;;;;;;;7.15;4.05;;;;;;;12.73;53.90;94396.19;5034964;28;20155;-78
2024/03/27 10:26:48;;;;;;;4.63;3.92;;;;;;;12.71;54.29;94402.81;5022254;28;20126;-78
2024/03/27 10:29:13;;;;;;;4.47;3.78;;;;;;;12.68;53.42;94398.22;5056163;28;20036;-79
2024/03/27 10:31:39;;;;;;;5.30;4.22;;;;;;;12.64;53.69;94403.34;5062427;28;20040;-78
2024/03/27 10:34:04;;;;;;;6.07;4.43;;;;;;;12.66;54.25;94401.19;5034235;28;20527;-77
2024/03/27 10:36:31;;;;;;;6.05;4.75;;;;;;;12.61;55.14;94392.78;5034332;28;20051;-77
2024/03/27 10:38:58;;;;;;;5.55;3.80;;;;;;;12.50;53.62;94405.50;5024680;28;20035;-77
2024/03/27 10:41:27;;;;;;;4.95;3.72;;;;;;;12.60;53.42;94406.94;5035078;28;20028;-77
2024/03/27 10:43:56;;;;;;;6.10;4.85;;;;;;;12.71;53.85;94423.69;5030513;28;20036;-77
2024/03/27 10:46:23;;;;;;;5.97;4.88;;;;;;;12.66;54.48;94424.69;5030209;28;20091;-85
2024/03/27 10:48:50;;;;;;;7.45;6.18;;;;;;;12.67;54.05;94422.81;5001438;28;20436;-78
2024/03/27 10:51:18;;;;;;;7.18;6.47;;;;;;;12.71;53.59;94434.91;5000601;28;20025;-79
2024/03/27 10:53:44;;;;;;;8.05;6.63;;;;;;;12.64;53.03;94426.09;5005578;28;20064;-78
2024/03/27 10:56:10;;;;;;;8.77;6.97;;;;;;;12.62;53.85;94436.84;5042894;28;20496;-78
2024/03/27 10:58:36;;;;;;;9.88;7.43;;;;;;;12.58;53.51;94424.75;5038314;28;20028;-84
2024/03/27 11:01:02;;;;;;;9.35;7.63;;;;;;;12.65;53.04;94425.75;5005068;28;20033;-86
2024/03/27 11:03:29;;;;;;;10.30;8.45;;;;;;;12.70;52.45;94432.63;5031669;28;20473;-87
2024/03/27 11:05:54;;;;;;;9.32;7.95;;;;;;;12.69;53.71;94431.84;5044359;28;20160;-84
2024/03/27 11:08:20;;;;;;;11.00;8.80;;;;;;;12.65;53.41;94436.19;5065806;28;20046;-87
2024/03/27 11:10:46;;;;;;;11.07;9.02;;;;;;;12.68;53.15;94450.44;5053407;28;20025;-86
2024/03/27 11:13:12;;;;;;;11.68;9.32;;;;;;;12.60;54.04;94448.72;5027880;28;20040;-83
2024/03/27 11:15:41;;;;;;;12.63;9.95;;;;;;;12.76;54.13;94460.03;5034259;28;20126;-82
2024/03/27 11:18:18;;;;;;;12.43;9.35;;;;;;;12.87;54.33;94452.56;5040333;28;20040;-85
2024/03/27 11:20:51;;;;;;;11.63;8.60;;;;;;;12.84;53.68;94448.72;5042299;28;20039;-84
2024/03/27 11:23:16;;;;;;;12.02;9.45;;;;;;;12.84;53.31;94453.94;5069086;28;20092;-85
2024/03/27 11:25:52;;;;;;;11.75;9.35;;;;;;;12.90;53.54;94442.22;5022542;28;20139;-86
2024/03/27 11:28:18;;;;;;;10.13;7.85;;;;;;;12.87;52.74;94442.84;5038560;28;20041;-85
2024/03/27 11:30:45;;;;;;;9.60;7.35;;;;;;;12.95;53.49;94437.84;5015982;28;20021;-85